Time;durP1;ratioP1;P1;durP2;ratioP2;P2;SDS_P1;SDS_P2;PMS_P1;PMS_P2;Temp;Humidity;BMP_temperature;BMP_pressure;BME280_temperature;BME280_humidity;BME280_pressure;Samples;Min_cycle;Max_cycle;Signal;HPM_P1;HPM_P2
2022/11/09 00:02:24;;;;;;;6.22;2.60;;;;;;;13.10;100.00;100315.56;5032947;28;20080;-70
2022/11/09 00:04:49;;;;;;;6.53;2.20;;;;;;;13.10;100.00;100318.28;5029692;28;20736;-69
2022/11/09 00:07:14;;;;;;;9.10;2.80;;;;;;;13.05;100.00;100310.06;5028852;28;20080;-70
2022/11/09 00:09:40;;;;;;;7.25;2.40;;;;;;;13.06;100.00;100317.16;5033069;28;20377;-70
2022/11/09 00:12:06;;;;;;;10.32;2.70;;;;;;;13.06;100.00;100311.72;5034941;28;20028;-70
2022/11/09 00:14:32;;;;;;;6.28;2.40;;;;;;;13.00;100.00;100301.84;5025562;28;20026;-70
2022/11/09 00:16:58;;;;;;;10.05;2.30;;;;;;;13.01;100.00;100309.75;5015055;28;20442;-70
2022/11/09 00:19:23;;;;;;;9.40;2.47;;;;;;;13.03;100.00;100317.63;5029482;28;20029;-70
2022/11/09 00:21:49;;;;;;;4.55;2.30;;;;;;;13.04;100.00;100314.66;5034114;28;20360;-70
2022/11/09 00:24:14;;;;;;;6.68;2.15;;;;;;;13.04;100.00;100314.66;5027634;28;20114;-70
2022/11/09 00:26:40;;;;;;;6.72;2.25;;;;;;;13.04;100.00;100314.66;5014843;28;20029;-70
2022/11/09 00:29:05;;;;;;;7.78;2.47;;;;;;;13.04;100.00;100309.25;5026814;28;20057;-70
2022/11/09 00:31:31;;;;;;;6.70;2.53;;;;;;;13.04;100.00;100316.56;5032589;28;20358;-70
2022/11/09 00:33:57;;;;;;;10.43;2.60;;;;;;;13.05;100.00;100310.06;5030048;28;20025;-70
2022/11/09 00:36:25;;;;;;;8.40;2.40;;;;;;;13.05;100.00;100304.66;5015002;28;20037;-70
2022/11/09 00:38:53;;;;;;;8.23;2.40;;;;;;;13.02;100.00;100300.53;5014380;28;20053;-70
2022/11/09 00:41:19;;;;;;;6.72;2.42;;;;;;;13.03;100.00;100298.63;5013525;28;20026;-70
2022/11/09 00:43:45;;;;;;;5.75;2.45;;;;;;;13.06;100.00;100301.69;5014584;28;20481;-70
2022/11/09 00:46:11;;;;;;;8.20;2.38;;;;;;;12.99;100.00;100294.81;5013370;28;20022;-70
2022/11/09 00:48:36;;;;;;;4.20;2.03;;;;;;;13.00;100.00;100293.72;5022567;28;20025;-70
2022/11/09 00:51:02;;;;;;;7.00;2.47;;;;;;;13.02;100.00;100291.56;5034262;28;20021;-70
2022/11/09 00:53:28;;;;;;;5.47;2.30;;;;;;;13.04;100.00;100303.00;5034491;28;20029;-70
2022/11/09 00:55:56;;;;;;;5.72;2.35;;;;;;;13.09;100.00;100294.91;5032701;28;20095;-70
2022/11/09 00:58:22;;;;;;;4.78;2.20;;;;;;;13.11;100.00;100298.19;5032192;28;20033;-70
2022/11/09 01:00:47;;;;;;;9.30;2.63;;;;;;;13.13;100.00;100290.59;5018962;28;20326;-70
2022/11/09 01:03:13;;;;;;;8.43;2.30;;;;;;;13.14;100.00;100303.13;5012766;28;20100;-70
2022/11/09 01:05:38;;;;;;;5.68;2.45;;;;;;;13.15;100.00;100299.31;5012589;28;20116;-70
2022/11/09 01:08:04;;;;;;;7.15;2.40;;;;;;;13.15;100.00;100304.75;5017206;28;20376;-70
2022/11/09 01:10:30;;;;;;;10.32;2.60;;;;;;;13.14;100.00;100305.81;5034230;28;20105;-70
2022/11/09 01:12:55;;;;;;;6.50;2.38;;;;;;;13.14;100.00;100308.53;5034016;28;20017;-70
2022/11/09 01:15:21;;;;;;;12.50;2.65;;;;;;;13.14;100.00;100308.53;5018618;28;20527;-70
2022/11/09 01:17:46;;;;;;;8.88;2.50;;;;;;;13.12;100.00;100316.94;5015020;28;20430;-70
2022/11/09 01:20:12;;;;;;;7.40;2.53;;;;;;;13.13;100.00;100317.75;5033183;28;20421;-70
2022/11/09 01:22:37;;;;;;;9.20;2.45;;;;;;;13.12;100.00;100329.72;5033868;28;20029;-70
2022/11/09 01:25:03;;;;;;;9.32;2.30;;;;;;;13.11;100.00;100330.78;5020896;28;20476;-70
2022/11/09 01:27:28;;;;;;;5.82;2.38;;;;;;;13.12;100.00;100324.28;5013977;28;20057;-70
2022/11/09 01:29:53;;;;;;;6.20;2.33;;;;;;;13.11;100.00;100331.59;5030963;28;20078;-70
2022/11/09 01:32:19;;;;;;;7.55;2.55;;;;;;;13.09;100.00;100332.94;5032109;28;20468;-70
2022/11/09 01:34:44;;;;;;;4.38;1.90;;;;;;;13.08;100.00;100336.72;5032652;28;20029;-70
2022/11/09 01:37:09;;;;;;;7.00;2.50;;;;;;;13.07;100.00;100333.22;5033359;28;20460;-69
2022/11/09 01:39:35;;;;;;;7.75;2.33;;;;;;;13.07;100.00;100324.22;5032344;28;20118;-69
2022/11/09 01:42:00;;;;;;;9.40;2.40;;;;;;;13.12;100.00;100327.00;5033067;28;20473;-70
2022/11/09 01:44:26;;;;;;;11.32;2.30;;;;;;;13.11;100.00;100328.06;5026661;28;20049;-70
2022/11/09 01:47:09;;;;;;;9.30;2.17;;;;;;;13.09;100.00;100338.38;5013864;28;20033;-70
2022/11/09 01:49:52;;;;;;;7.65;2.40;;;;;;;13.06;100.00;100333.47;5013298;28;20053;-69
2022/11/09 01:52:20;;;;;;;6.35;2.25;;;;;;;13.03;100.00;100328.50;5012133;28;20025;-70
2022/11/09 01:54:53;;;;;;;9.30;2.75;;;;;;;13.01;100.00;100331.47;5021109;28;20044;-69
2022/11/09 01:57:25;;;;;;;7.72;2.58;;;;;;;12.98;100.00;100317.59;5031236;28;20025;-70
2022/11/09 01:59:56;;;;;;;6.90;2.33;;;;;;;12.98;100.00;100314.88;5031411;28;20465;-70
2022/11/09 02:02:22;;;;;;;6.38;2.42;;;;;;;12.98;100.00;100331.19;5031177;28;20022;-70
2022/11/09 02:04:56;;;;;;;8.00;2.20;;;;;;;12.96;100.00;100336.88;5030735;28;20039;-70
2022/11/09 02:07:22;;;;;;;7.82;2.30;;;;;;;12.93;100.00;100330.03;5032788;28;20059;-70
2022/11/09 02:09:57;;;;;;;10.32;3.03;;;;;;;12.92;100.00;100325.69;5022708;28;20099;-70
2022/11/09 02:12:24;;;;;;;5.07;2.10;;;;;;;12.92;100.00;100333.84;5036627;28;20013;-70
2022/11/09 02:14:52;;;;;;;9.63;2.33;;;;;;;12.91;100.00;100331.38;5035788;28;20053;-69
2022/11/09 02:17:18;;;;;;;9.10;2.30;;;;;;;12.89;100.00;100330.78;5014974;28;20084;-70
2022/11/09 02:19:43;;;;;;;8.90;2.13;;;;;;;12.88;100.00;100332.69;5025688;28;20025;-70
2022/11/09 02:22:09;;;;;;;9.48;2.72;;;;;;;12.89;100.00;100323.50;5031467;28;20017;-70
2022/11/09 02:24:34;;;;;;;8.43;2.55;;;;;;;12.91;100.00;100326.75;5032955;28;20413;-70
2022/11/09 02:26:59;;;;;;;9.70;2.60;;;;;;;12.88;100.00;100340.84;5032206;28;20159;-71
2022/11/09 02:29:31;;;;;;;9.13;2.45;;;;;;;12.85;100.00;100335.13;5029120;28;20029;-70
2022/11/09 02:31:59;;;;;;;;;;;;;;;12.94;100.00;100347.97;5033083;28;20104;-70
2022/11/09 02:34:24;;;;;;;13.15;2.80;;;;;;;12.88;100.00;100349.00;5031355;28;19928;-70
2022/11/09 02:36:50;;;;;;;6.70;2.15;;;;;;;12.88;100.00;100356.31;5032581;28;20029;-70
2022/11/09 02:39:17;;;;;;;6.78;2.15;;;;;;;12.89;100.00;100355.22;5027656;28;20029;-70
2022/11/09 02:41:54;;;;;;;8.43;2.35;;;;;;;12.84;100.00;100336.19;5032013;28;20032;-70
2022/11/09 02:44:21;;;;;;;11.65;2.58;;;;;;;12.84;100.00;100331.56;5035926;28;20076;-70
2022/11/09 02:46:47;;;;;;;7.15;1.98;;;;;;;12.86;100.00;100320.44;5038793;28;20484;-70
2022/11/09 02:49:12;;;;;;;10.23;2.40;;;;;;;12.87;100.00;100331.03;5035485;28;20049;-70
2022/11/09 02:51:37;;;;;;;11.95;2.50;;;;;;;12.93;100.00;100330.03;5038887;28;20030;-70
2022/11/09 02:54:03;;;;;;;9.60;2.45;;;;;;;12.91;100.00;100309.66;5037685;28;20029;-70
2022/11/09 02:56:28;;;;;;;6.90;2.40;;;;;;;12.92;100.00;100289.56;5037772;28;20017;-70
2022/11/09 02:58:53;;;;;;;6.90;2.15;;;;;;;12.91;100.00;100294.16;5036114;28;20033;-70
2022/11/09 03:01:19;;;;;;;11.75;2.35;;;;;;;12.94;100.00;100314.59;5036376;28;20022;-70
2022/11/09 03:03:44;;;;;;;10.48;2.72;;;;;;;12.94;100.00;100320.00;5036720;28;20083;-70
2022/11/09 03:06:09;;;;;;;10.27;2.35;;;;;;;12.94;100.00;100322.72;5033400;28;20484;-70
2022/11/09 03:08:35;;;;;;;11.73;2.28;;;;;;;12.94;100.00;100328.16;5018275;28;20026;-70
2022/11/09 03:11:01;;;;;;;11.85;2.75;;;;;;;12.91;100.00;100337.63;5019011;28;20037;-70
2022/11/09 03:13:26;;;;;;;8.20;2.40;;;;;;;12.94;100.00;100347.97;5019092;28;20025;-70
2022/11/09 03:15:52;;;;;;;11.02;2.30;;;;;;;12.90;100.00;100348.75;5021541;28;20028;-70
2022/11/09 03:18:17;;;;;;;10.77;2.65;;;;;;;12.88;100.00;100349.00;5038546;28;20021;-70
2022/11/09 03:20:42;;;;;;;9.80;2.30;;;;;;;12.87;100.00;100358.19;5020918;28;20036;-70
2022/11/09 03:23:09;;;;;;;15.32;3.38;;;;;;;12.85;100.00;100362.25;5018742;28;20018;-70
2022/11/09 03:25:35;;;;;;;8.48;2.30;;;;;;;12.81;100.00;100367.34;5017847;28;20033;-70
2022/11/09 03:28:04;;;;;;;12.77;2.67;;;;;;;12.78;100.00;100365.16;5038488;28;20548;-70
2022/11/09 03:30:30;;;;;;;12.88;2.90;;;;;;;12.79;100.00;100366.81;5028877;28;20049;-70
2022/11/09 03:33:00;;;;;;;11.73;2.70;;;;;;;12.77;100.00;100360.78;5038725;28;20409;-70
2022/11/09 03:35:26;;;;;;;9.60;2.58;;;;;;;12.77;100.00;100360.78;5038371;28;20079;-70
2022/11/09 03:37:51;;;;;;;12.27;2.65;;;;;;;12.76;100.00;100357.25;5037518;28;20502;-70
2022/11/09 03:40:16;;;;;;;10.05;2.60;;;;;;;12.75;100.00;100362.94;5025200;28;20034;-70
2022/11/09 03:42:44;;;;;;;7.97;2.40;;;;;;;12.74;100.00;100377.56;5018950;28;20101;-70
2022/11/09 03:45:09;;;;;;;10.55;2.65;;;;;;;12.71;100.00;100376.22;5017327;28;20026;-70
2022/11/09 03:47:34;;;;;;;9.52;2.45;;;;;;;12.68;100.00;100375.88;5028262;28;20029;-70
2022/11/09 03:50:00;;;;;;;11.60;2.80;;;;;;;12.69;100.00;100393.81;5029394;28;20030;-70
2022/11/09 03:52:25;;;;;;;12.20;2.50;;;;;;;12.67;100.00;100394.06;5018631;28;20445;-70
2022/11/09 03:54:50;;;;;;;13.25;3.17;;;;;;;12.67;100.00;100394.06;5017995;28;20018;-70
2022/11/09 03:57:15;;;;;;;11.10;2.83;;;;;;;12.65;100.00;100398.09;5025323;28;20037;-70
2022/11/09 03:59:41;;;;;;;12.38;2.88;;;;;;;12.65;100.00;100411.66;5035429;28;20342;-70
2022/11/09 04:02:06;;;;;;;10.73;2.70;;;;;;;12.65;100.00;100403.50;5032513;28;20037;-70
2022/11/09 04:04:31;;;;;;;9.82;2.53;;;;;;;12.57;100.00;100402.84;5035378;28;20055;-70
2022/11/09 04:06:56;;;;;;;9.77;2.35;;;;;;;12.58;100.00;100411.84;5023477;28;20037;-70
2022/11/09 04:09:22;;;;;;;12.05;2.72;;;;;;;12.56;100.00;100406.66;5031829;28;20029;-70
2022/11/09 04:11:47;;;;;;;9.48;2.53;;;;;;;12.55;100.00;100413.16;5034923;28;20369;-70
2022/11/09 04:14:12;;;;;;;11.02;2.30;;;;;;;12.53;100.00;100417.19;5034648;28;20018;-70
2022/11/09 04:16:38;;;;;;;10.75;2.50;;;;;;;12.49;100.00;100411.44;5026025;28;20021;-69
2022/11/09 04:19:03;;;;;;;10.77;2.60;;;;;;;12.49;100.00;100426.91;5029929;28;20021;-70
2022/11/09 04:21:29;;;;;;;13.40;3.00;;;;;;;12.44;100.00;100424.94;5033595;28;20064;-70
2022/11/09 04:23:54;;;;;;;10.95;2.40;;;;;;;12.43;100.00;100428.72;5034810;28;20611;-70
2022/11/09 04:26:19;;;;;;;11.07;2.60;;;;;;;12.43;100.00;100425.19;5033513;28;20036;-70
2022/11/09 04:28:45;;;;;;;10.73;2.30;;;;;;;12.42;100.00;100435.19;5034126;28;20030;-70
2022/11/09 04:31:10;;;;;;;14.23;3.13;;;;;;;12.37;100.00;100440.56;5034534;28;20132;-70
2022/11/09 04:33:36;;;;;;;10.32;2.47;;;;;;;12.37;100.00;100451.41;5034531;28;20556;-70
2022/11/09 04:36:03;;;;;;;9.02;2.42;;;;;;;12.37;100.00;100443.28;5031036;28;20105;-70
2022/11/09 04:38:28;;;;;;;13.43;2.80;;;;;;;12.36;100.00;100450.56;5014594;28;20029;-70
2022/11/09 04:40:54;;;;;;;8.90;2.60;;;;;;;12.34;100.00;100441.88;5014965;28;20129;-70
2022/11/09 04:43:19;;;;;;;10.32;2.60;;;;;;;12.34;100.00;100447.28;5014988;28;20030;-70
2022/11/09 04:45:46;;;;;;;15.43;3.38;;;;;;;12.36;100.00;100447.84;5014673;28;20100;-70
2022/11/09 04:48:11;;;;;;;13.23;3.00;;;;;;;12.36;100.00;100450.56;5014578;28;20025;-70
2022/11/09 04:50:36;;;;;;;8.25;2.00;;;;;;;12.35;100.00;100450.81;5014751;28;20101;-69
2022/11/09 04:53:07;;;;;;;11.15;2.47;;;;;;;12.33;100.00;100456.50;5014395;28;20034;-70
2022/11/09 04:55:33;;;;;;;10.55;2.67;;;;;;;12.34;100.00;100450.00;5014678;28;20093;-70
2022/11/09 04:57:58;;;;;;;12.45;2.92;;;;;;;12.33;100.00;100461.91;5029626;28;20128;-70
2022/11/09 05:00:23;;;;;;;9.35;2.53;;;;;;;12.32;100.00;100438.59;5032629;28;20026;-70
2022/11/09 05:02:48;;;;;;;14.52;3.33;;;;;;;12.31;100.00;100446.97;5033712;28;20091;-70
2022/11/09 05:05:14;;;;;;;9.48;2.33;;;;;;;12.27;100.00;100440.41;5034252;28;20027;-70
2022/11/09 05:07:39;;;;;;;9.73;2.55;;;;;;;12.28;100.00;100439.34;5032409;28;20350;-70
2022/11/09 05:10:05;;;;;;;11.82;3.58;;;;;;;12.23;100.00;100440.88;5034445;28;20041;-70
2022/11/09 05:12:30;;;;;;;11.57;2.88;;;;;;;12.23;100.00;100435.47;5033947;28;20021;-70
2022/11/09 05:14:55;;;;;;;15.00;3.45;;;;;;;12.18;100.00;100438.09;5034000;28;20030;-70
2022/11/09 05:17:20;;;;;;;11.70;3.05;;;;;;;12.22;100.00;100430.28;5032282;28;20031;-70
2022/11/09 05:19:46;;;;;;;14.77;2.95;;;;;;;12.16;100.00;100440.22;5033634;28;20419;-70
2022/11/09 05:24:55;;;;;;;13.80;2.83;;;;;;;12.12;100.00;100433.63;5033759;28;20116;-70
2022/11/09 05:27:20;;;;;;;15.05;3.00;;;;;;;12.11;100.00;100436.59;5032359;28;20049;-70
2022/11/09 05:29:45;;;;;;;11.90;2.63;;;;;;;12.07;100.00;100427.31;5033808;28;20021;-70
2022/11/09 05:32:11;;;;;;;15.50;2.85;;;;;;;12.06;100.00;100434.63;5033555;28;20049;-70
2022/11/09 05:34:36;;;;;;;10.65;2.60;;;;;;;12.03;100.00;100432.38;5035361;28;20492;-70
2022/11/09 05:37:01;;;;;;;7.78;2.60;;;;;;;12.04;100.00;100436.75;5034355;28;20032;-70
2022/11/09 05:39:26;;;;;;;11.50;2.65;;;;;;;12.00;100.00;100441.03;5035002;28;20037;-70
2022/11/09 05:41:52;;;;;;;10.13;2.95;;;;;;;11.96;100.00;100435.28;5036300;28;20017;-70
2022/11/09 05:44:17;;;;;;;11.93;3.30;;;;;;;11.97;100.00;100438.78;5040791;28;20036;-70
2022/11/09 05:46:42;;;;;;;11.05;3.15;;;;;;;11.96;100.00;100439.88;5050037;28;20072;-70
2022/11/09 05:49:08;;;;;;;12.10;2.63;;;;;;;11.92;100.00;100433.25;5045104;28;20039;-70
2022/11/09 05:51:33;;;;;;;13.80;3.13;;;;;;;11.91;100.00;100440.56;5033171;28;20109;-70
2022/11/09 05:53:59;;;;;;;13.75;2.90;;;;;;;11.87;100.00;100442.13;5033235;28;20025;-70
2022/11/09 05:56:24;;;;;;;15.55;3.13;;;;;;;11.90;100.00;100438.94;5031513;28;20053;-70
2022/11/09 05:58:49;;;;;;;11.68;2.80;;;;;;;11.85;100.00;100439.66;5013038;28;20032;-70
2022/11/09 06:01:17;;;;;;;13.27;2.92;;;;;;;11.83;100.00;100439.06;5010750;28;20048;-70
2022/11/09 06:03:43;;;;;;;11.77;3.15;;;;;;;11.82;100.00;100442.88;5013373;28;20113;-70
2022/11/09 06:06:11;;;;;;;13.60;2.90;;;;;;;11.82;100.00;100444.72;5012903;28;20034;-70
2022/11/09 06:08:37;;;;;;;10.52;2.95;;;;;;;11.83;100.00;100435.53;5011723;28;20374;-70
2022/11/09 06:11:06;;;;;;;12.10;2.38;;;;;;;11.78;100.00;100439.00;5013261;28;20030;-70
2022/11/09 06:13:32;;;;;;;11.98;3.08;;;;;;;11.82;100.00;100445.56;5012735;28;20026;-70
2022/11/09 06:16:00;;;;;;;12.30;2.90;;;;;;;11.78;100.00;100444.41;5012756;28;20025;-70
2022/11/09 06:18:28;;;;;;;12.55;2.80;;;;;;;11.78;100.00;100438.19;5010670;28;20029;-70
2022/11/09 06:20:56;;;;;;;11.07;2.55;;;;;;;11.77;100.00;100448.19;5019076;28;20022;-70
2022/11/09 06:23:24;;;;;;;12.98;2.80;;;;;;;11.75;100.00;100453.03;5032620;28;20034;-70
2022/11/09 06:25:51;;;;;;;12.68;3.08;;;;;;;11.75;100.00;100452.22;5032783;28;20030;-70
2022/11/09 06:28:17;;;;;;;14.88;3.17;;;;;;;11.74;100.00;100454.09;5012968;28;20026;-70
2022/11/09 06:30:42;;;;;;;15.20;3.17;;;;;;;11.74;100.00;100464.94;5012879;28;20034;-70
2022/11/09 06:33:07;;;;;;;16.30;3.17;;;;;;;11.69;100.00;100457.53;5013004;28;20018;-70
2022/11/09 06:35:32;;;;;;;14.50;3.08;;;;;;;11.73;100.00;100466.00;5012478;28;20380;-70
2022/11/09 06:37:59;;;;;;;13.25;2.63;;;;;;;11.73;100.00;100460.59;5012696;28;20034;-70
2022/11/09 06:40:25;;;;;;;12.23;2.95;;;;;;;11.72;100.00;100467.06;5011443;28;20036;-70
2022/11/09 06:42:50;;;;;;;13.02;3.50;;;;;;;11.72;100.00;100467.06;5012880;28;20087;-70
2022/11/09 06:45:16;;;;;;;13.15;2.92;;;;;;;11.68;100.00;100471.31;5012788;28;20025;-70
2022/11/09 06:47:41;;;;;;;15.68;2.88;;;;;;;11.73;100.00;100473.31;5024739;28;20076;-70
2022/11/09 06:50:08;;;;;;;13.45;2.92;;;;;;;11.73;100.00;100471.44;5032675;28;20464;-70
2022/11/09 06:52:36;;;;;;;12.18;2.85;;;;;;;11.69;100.00;100473.78;5031073;28;20025;-70
2022/11/09 06:55:01;;;;;;;12.07;2.92;;;;;;;11.69;100.00;100473.78;5031181;28;20029;-70
2022/11/09 06:57:30;;;;;;;12.93;2.78;;;;;;;11.71;100.00;100481.66;5030863;28;20029;-70
2022/11/09 06:59:55;;;;;;;14.73;3.22;;;;;;;11.71;100.00;100476.25;5032364;28;20099;-70
2022/11/09 07:02:21;;;;;;;18.90;3.15;;;;;;;11.72;100.00;100482.53;5028537;28;20053;-70
2022/11/09 07:04:46;;;;;;;11.80;2.92;;;;;;;11.71;100.00;100481.66;5032417;28;20030;-70
2022/11/09 07:07:12;;;;;;;12.23;2.78;;;;;;;11.69;100.00;100490.03;5021486;28;20468;-70
2022/11/09 07:09:37;;;;;;;10.40;3.15;;;;;;;11.68;100.00;100487.56;5012414;28;20104;-70
2022/11/09 07:12:03;;;;;;;10.90;2.85;;;;;;;11.67;100.00;100491.34;5012419;28;20033;-70
2022/11/09 07:14:28;;;;;;;16.33;3.60;;;;;;;11.66;100.00;100490.53;5012722;28;20057;-70
2022/11/09 07:16:54;;;;;;;13.18;2.90;;;;;;;11.66;100.00;100492.44;5012489;28;20033;-70
2022/11/09 07:19:19;;;;;;;12.35;2.75;;;;;;;11.64;100.00;100497.25;5012386;28;20361;-69
2022/11/09 07:21:44;;;;;;;11.82;3.00;;;;;;;11.66;100.00;100501.38;5011202;28;20125;-69
2022/11/09 07:24:09;;;;;;;12.65;3.55;;;;;;;11.65;100.00;100507.03;5011269;28;20030;-71
2022/11/09 07:26:35;;;;;;;12.95;3.33;;;;;;;11.68;100.00;100507.41;5011614;28;20022;-70
2022/11/09 07:29:00;;;;;;;13.90;3.10;;;;;;;11.65;100.00;100505.13;5012453;28;20032;-70
2022/11/09 07:31:28;;;;;;;14.45;2.72;;;;;;;11.69;100.00;100510.91;5015276;28;20057;-70
2022/11/09 07:33:54;;;;;;;14.05;3.05;;;;;;;11.70;100.00;100510.69;5016305;28;20064;-70
2022/11/09 07:36:19;;;;;;;10.10;2.42;;;;;;;11.69;100.00;100516.34;5015198;28;20026;-70
2022/11/09 07:38:45;;;;;;;8.95;2.55;;;;;;;11.70;100.00;100512.56;5015676;28;20076;-70
2022/11/09 07:41:10;;;;;;;12.50;2.70;;;;;;;11.70;100.00;100512.56;5015847;28;20443;-69
2022/11/09 07:43:35;;;;;;;14.13;3.20;;;;;;;11.69;100.00;100510.91;5015855;28;20080;-70
2022/11/09 07:46:03;;;;;;;13.13;3.20;;;;;;;11.68;100.00;100506.56;5016011;28;20037;-71
2022/11/09 07:48:31;;;;;;;11.90;3.05;;;;;;;11.67;100.00;100510.31;5033498;28;20025;-69
2022/11/09 07:51:00;;;;;;;12.30;2.75;;;;;;;11.66;100.00;100511.41;5035636;28;20025;-70
2022/11/09 07:53:25;;;;;;;13.82;3.50;;;;;;;11.68;100.00;100511.97;5035093;28;20488;-70
2022/11/09 07:55:58;;;;;;;13.85;3.65;;;;;;;11.67;100.00;100511.16;5035531;28;20018;-70
2022/11/09 07:58:24;;;;;;;12.00;2.60;;;;;;;11.71;100.00;100516.91;5019370;28;20104;-70
2022/11/09 08:00:49;;;;;;;14.32;3.20;;;;;;;11.73;100.00;100517.50;5013092;28;20531;-70
2022/11/09 08:03:17;;;;;;;12.73;3.17;;;;;;;11.75;100.00;100520.78;5014180;28;20033;-70
2022/11/09 08:05:42;;;;;;;17.25;3.45;;;;;;;11.75;100.00;100526.22;5015242;28;20018;-71
2022/11/09 08:08:10;;;;;;;8.27;2.72;;;;;;;11.74;100.00;100523.75;5030368;28;20032;-70
2022/11/09 08:10:36;;;;;;;11.90;2.40;;;;;;;11.73;100.00;100531.06;5035060;28;20364;-73
2022/11/09 08:13:04;;;;;;;13.98;2.90;;;;;;;11.75;100.00;100531.63;5033951;28;20033;-71
2022/11/09 08:15:30;;;;;;;11.98;2.50;;;;;;;11.75;100.00;100530.81;5035015;28;20056;-71
2022/11/09 08:18:03;;;;;;;9.93;2.60;;;;;;;11.77;100.00;100529.50;5035779;28;20026;-72
2022/11/09 08:20:29;;;;;;;11.90;3.10;;;;;;;11.74;100.00;100540.00;5034787;28;20096;-75
2022/11/09 08:22:54;;;;;;;11.02;2.72;;;;;;;11.76;100.00;100530.59;5024932;28;20073;-76
2022/11/09 08:25:20;;;;;;;13.98;3.20;;;;;;;11.74;100.00;100546.25;5015315;28;20450;-72
2022/11/09 08:27:45;;;;;;;13.60;2.92;;;;;;;11.81;100.00;100546.94;5014888;28;20487;-71
2022/11/09 08:30:20;;;;;;;11.77;2.72;;;;;;;11.81;100.00;100546.94;5015218;28;20033;-72
2022/11/09 08:32:46;;;;;;;9.70;2.70;;;;;;;11.83;100.00;100555.66;5014817;28;20033;-71
2022/11/09 08:35:16;;;;;;;9.82;2.63;;;;;;;11.84;100.00;100551.88;5015211;28;20113;-75
2022/11/09 08:37:42;;;;;;;11.40;2.90;;;;;;;11.88;100.00;100550.34;5013065;28;20037;-70
2022/11/09 08:40:08;;;;;;;11.93;2.65;;;;;;;11.92;100.00;100558.00;5014960;28;20025;-73
2022/11/09 08:42:34;;;;;;;15.63;3.55;;;;;;;11.93;100.00;100555.06;5019487;28;20083;-72
2022/11/09 08:44:59;;;;;;;10.35;2.83;;;;;;;11.98;100.00;100566.00;5034684;28;20400;-70
2022/11/09 08:47:24;;;;;;;12.70;2.97;;;;;;;11.95;100.00;100558.34;5034556;28;20135;-72
2022/11/09 08:49:50;;;;;;;10.07;2.92;;;;;;;11.99;100.00;100564.13;5034876;28;20357;-70
2022/11/09 08:52:16;;;;;;;9.98;2.63;;;;;;;12.03;100.00;100559.84;5032013;28;20083;-71
2022/11/09 08:54:41;;;;;;;16.42;3.33;;;;;;;12.08;100.00;100565.41;5014940;28;20077;-72
2022/11/09 08:57:07;;;;;;;11.23;3.17;;;;;;;12.11;100.00;100562.19;5022369;28;20068;-71
2022/11/09 08:59:32;;;;;;;11.05;2.70;;;;;;;12.13;100.00;100568.19;5022407;28;20029;-71
2022/11/09 09:01:58;;;;;;;12.13;2.70;;;;;;;12.17;100.00;100561.22;5027468;28;20523;-71
2022/11/09 09:04:23;;;;;;;10.07;2.60;;;;;;;12.21;100.00;100562.41;5033580;28;20076;-71
2022/11/09 09:06:48;;;;;;;12.88;3.00;;;;;;;12.23;100.00;100565.69;5033855;28;20117;-71
2022/11/09 09:09:14;;;;;;;11.02;3.22;;;;;;;12.27;100.00;100567.91;5031752;28;20029;-70
2022/11/09 09:11:39;;;;;;;14.20;2.90;;;;;;;12.32;100.00;100574.25;5032584;28;20045;-71
2022/11/09 09:14:04;;;;;;;7.65;2.55;;;;;;;12.35;100.00;100567.50;5032972;28;20037;-72
2022/11/09 09:16:30;;;;;;;9.80;2.50;;;;;;;12.41;100.00;100569.25;5033661;28;20022;-73
2022/11/09 09:18:55;;;;;;;12.68;2.80;;;;;;;12.44;100.00;100566.06;5038895;28;20081;-72
2022/11/09 09:21:21;;;;;;;13.20;3.20;;;;;;;12.44;100.00;100570.63;5046289;28;20025;-69
2022/11/09 09:23:49;;;;;;;11.25;3.05;;;;;;;12.46;100.00;100579.38;5026446;28;20028;-70
2022/11/09 09:26:15;;;;;;;13.80;2.83;;;;;;;12.46;100.00;100582.09;5012974;28;20030;-71
2022/11/09 09:28:41;;;;;;;11.15;2.97;;;;;;;12.46;100.00;100577.47;5013838;28;20080;-71
2022/11/09 09:31:07;;;;;;;13.13;2.80;;;;;;;12.47;100.00;100576.41;5013543;28;20037;-70
2022/11/09 09:33:32;;;;;;;10.32;2.33;;;;;;;12.49;100.00;100578.88;5013813;28;20061;-71
2022/11/09 09:35:58;;;;;;;10.43;2.67;;;;;;;12.50;100.00;100586.78;5031194;28;20038;-71
2022/11/09 09:38:24;;;;;;;14.38;2.72;;;;;;;12.47;100.00;100589.16;5032922;28;20412;-71
2022/11/09 09:41:01;;;;;;;9.05;2.35;;;;;;;12.49;100.00;100582.41;5033527;28;20053;-71
2022/11/09 09:43:28;;;;;;;10.85;2.85;;;;;;;12.50;100.00;100589.50;5031519;28;20056;-71
2022/11/09 09:45:54;;;;;;;13.90;2.80;;;;;;;12.52;100.00;100584.63;5032924;28;20044;-71
2022/11/09 09:48:30;;;;;;;13.55;3.08;;;;;;;12.52;100.00;100590.06;5032976;28;20029;-70
2022/11/09 09:51:02;;;;;;;13.15;2.65;;;;;;;12.62;100.00;100594.03;5032780;28;20373;-71
2022/11/09 09:53:52;;;;;;;13.05;2.78;;;;;;;12.67;100.00;100592.22;5028275;28;20069;-71
2022/11/09 09:56:23;;;;;;;10.90;2.78;;;;;;;12.73;100.00;100595.88;5013273;28;20034;-71
2022/11/09 09:58:57;;;;;;;15.00;3.37;;;;;;;12.76;100.00;100607.03;5012780;28;20025;-72
2022/11/09 10:01:25;;;;;;;15.98;2.88;;;;;;;12.85;100.00;100603.94;5010534;28;20069;-70
2022/11/09 10:03:50;;;;;;;12.95;2.90;;;;;;;12.93;100.00;100620.63;5012486;28;20033;-71
2022/11/09 10:06:36;;;;;;;9.23;2.33;;;;;;;13.02;100.00;100617.53;5013097;28;20093;-71
2022/11/09 10:09:39;;;;;;;9.57;2.53;;;;;;;13.00;100.00;100622.34;5012525;28;20022;-69
2022/11/09 10:12:13;;;;;;;12.25;2.78;;;;;;;13.00;100.00;100627.78;5011813;28;20057;-69
2022/11/09 10:14:52;;;;;;;11.43;2.60;;;;;;;12.98;100.00;100619.88;5012191;28;20084;-69
2022/11/09 10:17:20;;;;;;;13.05;2.83;;;;;;;12.94;100.00;100622.28;5021425;28;20063;-70
2022/11/09 10:20:16;;;;;;;12.57;2.88;;;;;;;12.98;100.00;100622.59;5031081;28;20033;-70
2022/11/09 10:23:10;;;;;;;12.52;2.70;;;;;;;12.97;100.00;100620.13;5029110;28;20115;-69
2022/11/09 10:25:37;;;;;;;12.63;2.95;;;;;;;13.05;98.30;100617.03;5031854;28;20475;-70
2022/11/09 10:28:09;;;;;;;10.65;2.58;;;;;;;13.09;98.91;100618.19;5032524;28;20039;-69
2022/11/09 10:30:34;;;;;;;13.00;2.30;;;;;;;13.09;97.96;100615.47;5019439;28;20108;-71
2022/11/09 10:33:09;;;;;;;13.13;2.85;;;;;;;13.15;98.87;100622.63;5012699;28;20045;-71
2022/11/09 10:35:40;;;;;;;12.57;2.70;;;;;;;13.19;96.56;100629.19;5017150;28;20054;-71
2022/11/09 10:38:12;;;;;;;12.52;2.42;;;;;;;13.20;93.57;100628.13;5025872;28;20025;-71
2022/11/09 10:40:48;;;;;;;8.68;2.50;;;;;;;13.20;93.00;100627.31;5031012;28;20029;-71
2022/11/09 10:43:14;;;;;;;11.20;2.75;;;;;;;13.20;91.03;100633.56;5012937;28;20028;-71
2022/11/09 10:45:42;;;;;;;15.35;2.88;;;;;;;13.21;88.88;100637.09;5032102;28;20096;-70
2022/11/09 10:48:09;;;;;;;14.95;3.03;;;;;;;13.18;88.57;100630.28;5032447;28;20041;-70
2022/11/09 10:50:50;;;;;;;7.97;2.25;;;;;;;13.28;91.44;100632.31;5032226;28;20021;-70
2022/11/09 10:53:24;;;;;;;12.43;2.53;;;;;;;13.21;90.60;100653.38;5031419;28;20032;-71
2022/11/09 10:55:54;;;;;;;11.02;2.58;;;;;;;13.24;89.73;100645.59;5032148;28;20021;-74
2022/11/09 10:58:25;;;;;;;11.57;2.45;;;;;;;13.18;94.07;100643.84;5032156;28;20021;-69
2022/11/09 11:01:12;;;;;;;8.75;2.65;;;;;;;13.24;91.37;100651.03;5014211;28;20057;-71
2022/11/09 11:03:38;;;;;;;7.20;2.53;;;;;;;13.19;89.36;100664.50;5039821;28;20029;-70
2022/11/09 11:06:13;;;;;;;11.27;2.50;;;;;;;13.19;90.89;100656.34;5033112;28;20025;-70
2022/11/09 11:08:41;;;;;;;12.68;2.65;;;;;;;13.17;92.93;100660.41;5031167;28;20033;-71
2022/11/09 11:11:24;;;;;;;9.98;2.42;;;;;;;13.21;91.03;100656.09;5015745;28;20037;-71
2022/11/09 11:13:52;;;;;;;10.13;2.17;;;;;;;13.16;91.23;100653.31;5016578;28;20416;-72
2022/11/09 11:16:32;;;;;;;12.95;2.50;;;;;;;13.19;88.48;100648.19;5016570;28;20338;-71